Terminal Aerodrome Forecast
Issued by NWS

Home | Current Version | Previous Version | Text Only | Print | Product List | Glossary On
Versions: 1 2 3 4 5 6 7 8 9 10 11 12 13 14 15 16 17
000
FTUS45 KSLC 171740
TAFPVU
TAF
KPVU 171740Z 1718/1818 35010G18KT P6SM -SHRA SCT020 BKN050
     FM172100 32015G25KT P6SM SCT040 BKN080
     FM180300 VRB04KT P6SM SCT080 SCT120=

USA.gov is the U.S. government's official web portal to all federal, state and local government web resources and services.